sensor_id;sensor_type;location;lat;lon;timestamp;P1;durP1;ratioP1;P2;durP2;ratioP2
34152;SDS011;20426;48.372;10.888;2022-07-29T00:00:19;3.97;;;2.60;;
34152;SDS011;20426;48.372;10.888;2022-07-29T00:00:50;3.78;;;2.30;;
34152;SDS011;20426;48.372;10.888;2022-07-29T00:01:21;3.55;;;2.03;;
34152;SDS011;20426;48.372;10.888;2022-07-29T00:01:51;3.03;;;2.40;;
34152;SDS011;20426;48.372;10.888;2022-07-29T00:02:22;4.18;;;2.58;;
34152;SDS011;20426;48.372;10.888;2022-07-29T00:02:53;3.97;;;2.47;;
34152;SDS011;20426;48.372;10.888;2022-07-29T00:03:24;3.45;;;2.30;;
34152;SDS011;20426;48.372;10.888;2022-07-29T00:03:54;3.53;;;2.42;;
34152;SDS011;20426;48.372;10.888;2022-07-29T00:04:25;5.35;;;2.30;;
34152;SDS011;20426;48.372;10.888;2022-07-29T00:04:56;4.22;;;2.42;;
34152;SDS011;20426;48.372;10.888;2022-07-29T00:05:27;4.60;;;2.20;;
34152;SDS011;20426;48.372;10.888;2022-07-29T00:05:57;3.05;;;2.53;;
34152;SDS011;20426;48.372;10.888;2022-07-29T00:06:28;2.97;;;2.67;;
34152;SDS011;20426;48.372;10.888;2022-07-29T00:06:59;3.88;;;2.53;;
34152;SDS011;20426;48.372;10.888;2022-07-29T00:07:30;3.53;;;2.50;;
34152;SDS011;20426;48.372;10.888;2022-07-29T00:08:01;4.18;;;2.40;;
34152;SDS011;20426;48.372;10.888;2022-07-29T00:08:32;3.08;;;2.28;;
34152;SDS011;20426;48.372;10.888;2022-07-29T00:09:02;3.30;;;2.28;;
34152;SDS011;20426;48.372;10.888;2022-07-29T00:09:33;3.65;;;2.10;;
34152;SDS011;20426;48.372;10.888;2022-07-29T00:10:04;3.83;;;2.17;;
34152;SDS011;20426;48.372;10.888;2022-07-29T00:10:35;2.67;;;1.92;;
34152;SDS011;20426;48.372;10.888;2022-07-29T00:11:06;2.33;;;2.13;;
34152;SDS011;20426;48.372;10.888;2022-07-29T00:11:37;3.58;;;2.45;;
34152;SDS011;20426;48.372;10.888;2022-07-29T00:12:07;2.95;;;2.00;;
34152;SDS011;20426;48.372;10.888;2022-07-29T00:12:39;2.30;;;1.98;;
34152;SDS011;20426;48.372;10.888;2022-07-29T00:13:09;2.28;;;2.00;;
34152;SDS011;20426;48.372;10.888;2022-07-29T00:13:40;4.82;;;2.10;;
34152;SDS011;20426;48.372;10.888;2022-07-29T00:14:11;4.40;;;2.40;;
34152;SDS011;20426;48.372;10.888;2022-07-29T00:14:42;4.28;;;2.20;;
34152;SDS011;20426;48.372;10.888;2022-07-29T00:15:13;2.97;;;2.30;;
34152;SDS011;20426;48.372;10.888;2022-07-29T00:15:43;3.78;;;1.98;;
34152;SDS011;20426;48.372;10.888;2022-07-29T00:16:14;3.53;;;2.58;;
34152;SDS011;20426;48.372;10.888;2022-07-29T00:16:45;3.88;;;2.38;;
34152;SDS011;20426;48.372;10.888;2022-07-29T00:17:16;5.28;;;2.10;;
34152;SDS011;20426;48.372;10.888;2022-07-29T00:17:47;2.53;;;2.08;;
34152;SDS011;20426;48.372;10.888;2022-07-29T00:18:17;2.92;;;2.00;;
34152;SDS011;20426;48.372;10.888;2022-07-29T00:18:48;2.20;;;2.00;;
34152;SDS011;20426;48.372;10.888;2022-07-29T00:19:19;2.90;;;2.10;;
34152;SDS011;20426;48.372;10.888;2022-07-29T00:19:50;3.55;;;2.28;;
34152;SDS011;20426;48.372;10.888;2022-07-29T00:20:21;2.85;;;2.30;;
34152;SDS011;20426;48.372;10.888;2022-07-29T00:20:51;2.30;;;2.00;;
34152;SDS011;20426;48.372;10.888;2022-07-29T00:21:22;3.10;;;2.28;;
34152;SDS011;20426;48.372;10.888;2022-07-29T00:21:53;3.13;;;1.90;;
34152;SDS011;20426;48.372;10.888;2022-07-29T00:22:23;3.30;;;2.38;;
34152;SDS011;20426;48.372;10.888;2022-07-29T00:22:54;2.45;;;2.22;;
34152;SDS011;20426;48.372;10.888;2022-07-29T00:23:25;2.47;;;2.08;;
34152;SDS011;20426;48.372;10.888;2022-07-29T00:23:55;3.30;;;2.22;;
34152;SDS011;20426;48.372;10.888;2022-07-29T00:24:26;3.53;;;2.20;;
34152;SDS011;20426;48.372;10.888;2022-07-29T00:24:57;2.92;;;2.17;;
34152;SDS011;20426;48.372;10.888;2022-07-29T00:25:28;2.38;;;1.75;;
34152;SDS011;20426;48.372;10.888;2022-07-29T00:25:58;3.83;;;2.00;;
34152;SDS011;20426;48.372;10.888;2022-07-29T00:26:29;3.72;;;2.00;;
34152;SDS011;20426;48.372;10.888;2022-07-29T00:27:01;2.78;;;2.00;;
34152;SDS011;20426;48.372;10.888;2022-07-29T00:27:32;3.42;;;2.08;;
34152;SDS011;20426;48.372;10.888;2022-07-29T00:28:03;3.45;;;1.90;;
34152;SDS011;20426;48.372;10.888;2022-07-29T00:28:34;3.15;;;2.10;;
34152;SDS011;20426;48.372;10.888;2022-07-29T00:29:05;2.88;;;1.90;;
34152;SDS011;20426;48.372;10.888;2022-07-29T00:29:35;3.13;;;2.38;;
34152;SDS011;20426;48.372;10.888;2022-07-29T00:30:06;3.38;;;2.60;;
34152;SDS011;20426;48.372;10.888;2022-07-29T00:30:37;3.92;;;2.22;;
34152;SDS011;20426;48.372;10.888;2022-07-29T00:31:08;2.88;;;2.20;;
34152;SDS011;20426;48.372;10.888;2022-07-29T00:31:39;4.95;;;1.98;;
34152;SDS011;20426;48.372;10.888;2022-07-29T00:32:10;3.85;;;2.20;;
34152;SDS011;20426;48.372;10.888;2022-07-29T00:32:40;2.42;;;2.17;;
34152;SDS011;20426;48.372;10.888;2022-07-29T00:33:11;3.20;;;2.20;;
34152;SDS011;20426;48.372;10.888;2022-07-29T00:33:42;3.60;;;2.20;;
34152;SDS011;20426;48.372;10.888;2022-07-29T00:34:13;5.22;;;2.58;;
34152;SDS011;20426;48.372;10.888;2022-07-29T00:35:02;4.30;;;2.30;;
34152;SDS011;20426;48.372;10.888;2022-07-29T00:35:51;3.10;;;2.17;;
34152;SDS011;20426;48.372;10.888;2022-07-29T00:36:22;2.17;;;1.92;;
34152;SDS011;20426;48.372;10.888;2022-07-29T00:36:53;3.67;;;2.50;;
34152;SDS011;20426;48.372;10.888;2022-07-29T00:37:24;3.47;;;2.50;;
34152;SDS011;20426;48.372;10.888;2022-07-29T00:37:55;2.92;;;2.38;;
34152;SDS011;20426;48.372;10.888;2022-07-29T00:38:26;3.17;;;2.33;;
34152;SDS011;20426;48.372;10.888;2022-07-29T00:38:56;2.80;;;2.20;;
34152;SDS011;20426;48.372;10.888;2022-07-29T00:39:27;4.43;;;2.47;;
34152;SDS011;20426;48.372;10.888;2022-07-29T00:39:58;2.42;;;2.20;;
34152;SDS011;20426;48.372;10.888;2022-07-29T00:40:29;2.80;;;2.10;;
34152;SDS011;20426;48.372;10.888;2022-07-29T00:40:59;3.47;;;2.40;;
34152;SDS011;20426;48.372;10.888;2022-07-29T00:41:30;3.90;;;2.60;;
34152;SDS011;20426;48.372;10.888;2022-07-29T00:42:04;2.80;;;2.25;;
34152;SDS011;20426;48.372;10.888;2022-07-29T00:42:44;4.40;;;2.05;;
34152;SDS011;20426;48.372;10.888;2022-07-29T00:43:16;3.67;;;2.10;;
34152;SDS011;20426;48.372;10.888;2022-07-29T00:43:47;2.63;;;2.15;;
34152;SDS011;20426;48.372;10.888;2022-07-29T00:44:18;5.45;;;2.33;;
34152;SDS011;20426;48.372;10.888;2022-07-29T00:44:49;3.83;;;2.20;;
34152;SDS011;20426;48.372;10.888;2022-07-29T00:45:19;3.22;;;2.15;;
34152;SDS011;20426;48.372;10.888;2022-07-29T00:45:51;4.03;;;2.30;;
34152;SDS011;20426;48.372;10.888;2022-07-29T00:46:22;2.70;;;2.20;;
34152;SDS011;20426;48.372;10.888;2022-07-29T00:46:53;3.03;;;2.20;;
34152;SDS011;20426;48.372;10.888;2022-07-29T00:47:24;3.03;;;2.50;;
34152;SDS011;20426;48.372;10.888;2022-07-29T00:47:54;3.33;;;2.13;;
34152;SDS011;20426;48.372;10.888;2022-07-29T00:48:25;2.95;;;1.90;;
34152;SDS011;20426;48.372;10.888;2022-07-29T00:48:56;3.17;;;2.05;;
34152;SDS011;20426;48.372;10.888;2022-07-29T00:49:27;3.00;;;2.10;;
34152;SDS011;20426;48.372;10.888;2022-07-29T00:49:58;2.25;;;2.05;;
34152;SDS011;20426;48.372;10.888;2022-07-29T00:50:29;2.28;;;2.08;;
34152;SDS011;20426;48.372;10.888;2022-07-29T00:51:01;3.30;;;2.20;;
34152;SDS011;20426;48.372;10.888;2022-07-29T00:51:34;3.03;;;1.65;;
34152;SDS011;20426;48.372;10.888;2022-07-29T00:52:06;3.25;;;2.10;;
34152;SDS011;20426;48.372;10.888;2022-07-29T00:52:39;3.65;;;2.17;;
34152;SDS011;20426;48.372;10.888;2022-07-29T00:53:11;5.75;;;2.28;;
34152;SDS011;20426;48.372;10.888;2022-07-29T00:53:42;3.05;;;2.30;;
34152;SDS011;20426;48.372;10.888;2022-07-29T00:54:13;2.63;;;2.20;;
34152;SDS011;20426;48.372;10.888;2022-07-29T00:54:44;2.42;;;2.20;;
34152;SDS011;20426;48.372;10.888;2022-07-29T00:55:15;2.65;;;2.05;;
34152;SDS011;20426;48.372;10.888;2022-07-29T00:55:47;3.08;;;2.42;;
34152;SDS011;20426;48.372;10.888;2022-07-29T00:56:18;2.83;;;2.00;;
34152;SDS011;20426;48.372;10.888;2022-07-29T00:56:49;2.22;;;1.88;;
34152;SDS011;20426;48.372;10.888;2022-07-29T00:57:19;2.67;;;2.33;;
34152;SDS011;20426;48.372;10.888;2022-07-29T00:57:50;2.65;;;1.80;;
34152;SDS011;20426;48.372;10.888;2022-07-29T00:58:22;2.38;;;2.00;;
34152;SDS011;20426;48.372;10.888;2022-07-29T00:58:54;2.28;;;1.90;;
34152;SDS011;20426;48.372;10.888;2022-07-29T00:59:26;2.65;;;2.03;;
34152;SDS011;20426;48.372;10.888;2022-07-29T00:59:57;2.47;;;1.92;;
34152;SDS011;20426;48.372;10.888;2022-07-29T01:00:28;2.00;;;1.80;;
34152;SDS011;20426;48.372;10.888;2022-07-29T01:00:59;3.72;;;2.08;;
34152;SDS011;20426;48.372;10.888;2022-07-29T01:01:30;3.05;;;2.00;;
34152;SDS011;20426;48.372;10.888;2022-07-29T01:02:04;2.80;;;2.25;;
34152;SDS011;20426;48.372;10.888;2022-07-29T01:02:34;2.80;;;2.10;;
34152;SDS011;20426;48.372;10.888;2022-07-29T01:03:06;2.13;;;1.75;;
34152;SDS011;20426;48.372;10.888;2022-07-29T01:03:37;4.82;;;2.38;;
34152;SDS011;20426;48.372;10.888;2022-07-29T01:04:08;7.47;;;2.20;;
34152;SDS011;20426;48.372;10.888;2022-07-29T01:04:39;3.85;;;2.20;;
34152;SDS011;20426;48.372;10.888;2022-07-29T01:05:10;2.50;;;2.05;;
34152;SDS011;20426;48.372;10.888;2022-07-29T01:05:43;2.60;;;2.10;;
34152;SDS011;20426;48.372;10.888;2022-07-29T01:06:16;3.05;;;2.38;;
34152;SDS011;20426;48.372;10.888;2022-07-29T01:06:48;4.28;;;2.28;;
34152;SDS011;20426;48.372;10.888;2022-07-29T01:07:19;3.55;;;2.40;;
34152;SDS011;20426;48.372;10.888;2022-07-29T01:07:52;3.50;;;2.58;;
34152;SDS011;20426;48.372;10.888;2022-07-29T01:08:24;2.75;;;2.10;;
34152;SDS011;20426;48.372;10.888;2022-07-29T01:08:55;2.30;;;2.10;;
34152;SDS011;20426;48.372;10.888;2022-07-29T01:09:26;2.95;;;2.40;;
34152;SDS011;20426;48.372;10.888;2022-07-29T01:09:58;3.20;;;2.30;;
34152;SDS011;20426;48.372;10.888;2022-07-29T01:10:29;6.15;;;2.33;;
34152;SDS011;20426;48.372;10.888;2022-07-29T01:11:00;3.08;;;2.30;;
34152;SDS011;20426;48.372;10.888;2022-07-29T01:11:32;2.85;;;2.45;;
34152;SDS011;20426;48.372;10.888;2022-07-29T01:12:04;2.78;;;2.10;;
34152;SDS011;20426;48.372;10.888;2022-07-29T01:12:36;3.15;;;2.60;;
34152;SDS011;20426;48.372;10.888;2022-07-29T01:13:08;3.05;;;2.25;;
34152;SDS011;20426;48.372;10.888;2022-07-29T01:13:40;3.47;;;2.33;;
34152;SDS011;20426;48.372;10.888;2022-07-29T01:14:11;3.60;;;2.72;;
34152;SDS011;20426;48.372;10.888;2022-07-29T01:14:42;2.78;;;2.38;;
34152;SDS011;20426;48.372;10.888;2022-07-29T01:15:14;4.10;;;2.45;;
34152;SDS011;20426;48.372;10.888;2022-07-29T01:15:49;3.58;;;2.78;;
34152;SDS011;20426;48.372;10.888;2022-07-29T01:16:32;3.00;;;2.40;;
34152;SDS011;20426;48.372;10.888;2022-07-29T01:17:14;3.72;;;2.40;;
34152;SDS011;20426;48.372;10.888;2022-07-29T01:18:47;2.67;;;2.40;;
34152;SDS011;20426;48.372;10.888;2022-07-29T01:21:12;2.95;;;2.65;;
34152;SDS011;20426;48.372;10.888;2022-07-29T01:21:57;4.13;;;2.70;;
34152;SDS011;20426;48.372;10.888;2022-07-29T01:24:07;4.25;;;3.00;;
34152;SDS011;20426;48.372;10.888;2022-07-29T01:26:27;3.38;;;2.45;;
34152;SDS011;20426;48.372;10.888;2022-07-29T01:27:08;4.78;;;2.80;;
34152;SDS011;20426;48.372;10.888;2022-07-29T01:29:41;5.63;;;3.38;;
34152;SDS011;20426;48.372;10.888;2022-07-29T01:30:17;4.28;;;3.22;;
34152;SDS011;20426;48.372;10.888;2022-07-29T01:30:48;4.32;;;3.28;;
34152;SDS011;20426;48.372;10.888;2022-07-29T01:32:26;4.07;;;2.83;;
34152;SDS011;20426;48.372;10.888;2022-07-29T01:33:00;5.63;;;3.00;;
34152;SDS011;20426;48.372;10.888;2022-07-29T01:33:38;4.97;;;3.58;;
34152;SDS011;20426;48.372;10.888;2022-07-29T01:34:23;3.97;;;2.90;;
34152;SDS011;20426;48.372;10.888;2022-07-29T01:35:49;4.22;;;3.03;;
34152;SDS011;20426;48.372;10.888;2022-07-29T01:36:27;4.40;;;3.08;;
34152;SDS011;20426;48.372;10.888;2022-07-29T01:37:12;3.97;;;3.00;;
34152;SDS011;20426;48.372;10.888;2022-07-29T01:37:50;5.20;;;3.33;;
34152;SDS011;20426;48.372;10.888;2022-07-29T01:38:36;3.78;;;3.05;;
34152;SDS011;20426;48.372;10.888;2022-07-29T01:39:14;6.50;;;3.35;;
34152;SDS011;20426;48.372;10.888;2022-07-29T01:39:50;4.22;;;3.08;;
34152;SDS011;20426;48.372;10.888;2022-07-29T01:40:26;5.28;;;3.50;;
34152;SDS011;20426;48.372;10.888;2022-07-29T01:41:08;4.35;;;3.30;;
34152;SDS011;20426;48.372;10.888;2022-07-29T01:41:47;4.18;;;3.33;;
34152;SDS011;20426;48.372;10.888;2022-07-29T01:43:06;3.80;;;3.05;;
34152;SDS011;20426;48.372;10.888;2022-07-29T01:43:46;7.05;;;3.30;;
34152;SDS011;20426;48.372;10.888;2022-07-29T01:44:48;4.32;;;3.35;;
34152;SDS011;20426;48.372;10.888;2022-07-29T01:45:40;4.13;;;3.38;;
34152;SDS011;20426;48.372;10.888;2022-07-29T01:46:17;4.38;;;3.40;;
34152;SDS011;20426;48.372;10.888;2022-07-29T01:46:56;4.57;;;3.30;;
34152;SDS011;20426;48.372;10.888;2022-07-29T01:47:43;5.65;;;3.00;;
34152;SDS011;20426;48.372;10.888;2022-07-29T01:49:21;4.60;;;3.22;;
34152;SDS011;20426;48.372;10.888;2022-07-29T01:49:57;4.40;;;3.20;;
34152;SDS011;20426;48.372;10.888;2022-07-29T01:50:46;5.35;;;3.47;;
34152;SDS011;20426;48.372;10.888;2022-07-29T01:51:18;4.55;;;3.55;;
34152;SDS011;20426;48.372;10.888;2022-07-29T01:52:00;3.97;;;3.40;;
34152;SDS011;20426;48.372;10.888;2022-07-29T01:52:38;5.80;;;3.30;;
34152;SDS011;20426;48.372;10.888;2022-07-29T01:53:14;3.47;;;3.10;;
34152;SDS011;20426;48.372;10.888;2022-07-29T01:53:54;4.85;;;3.88;;
34152;SDS011;20426;48.372;10.888;2022-07-29T01:54:49;4.22;;;3.50;;
34152;SDS011;20426;48.372;10.888;2022-07-29T01:55:29;5.68;;;3.40;;
34152;SDS011;20426;48.372;10.888;2022-07-29T01:56:04;3.75;;;3.05;;
34152;SDS011;20426;48.372;10.888;2022-07-29T01:56:37;3.50;;;3.08;;
34152;SDS011;20426;48.372;10.888;2022-07-29T01:57:09;4.78;;;3.08;;
34152;SDS011;20426;48.372;10.888;2022-07-29T01:57:44;3.63;;;3.05;;
34152;SDS011;20426;48.372;10.888;2022-07-29T01:58:17;3.33;;;2.80;;
34152;SDS011;20426;48.372;10.888;2022-07-29T01:58:49;3.67;;;3.20;;
34152;SDS011;20426;48.372;10.888;2022-07-29T01:59:22;4.53;;;3.08;;
34152;SDS011;20426;48.372;10.888;2022-07-29T01:59:56;4.85;;;3.13;;
34152;SDS011;20426;48.372;10.888;2022-07-29T02:00:28;6.65;;;3.60;;
34152;SDS011;20426;48.372;10.888;2022-07-29T02:01:01;5.32;;;3.20;;
34152;SDS011;20426;48.372;10.888;2022-07-29T02:01:33;4.00;;;3.22;;
34152;SDS011;20426;48.372;10.888;2022-07-29T02:02:06;6.90;;;3.50;;
34152;SDS011;20426;48.372;10.888;2022-07-29T02:02:41;7.10;;;3.80;;
34152;SDS011;20426;48.372;10.888;2022-07-29T02:03:14;4.07;;;3.00;;
34152;SDS011;20426;48.372;10.888;2022-07-29T02:03:48;5.05;;;3.00;;
34152;SDS011;20426;48.372;10.888;2022-07-29T02:04:21;4.55;;;3.17;;
34152;SDS011;20426;48.372;10.888;2022-07-29T02:04:53;3.75;;;3.20;;
34152;SDS011;20426;48.372;10.888;2022-07-29T02:05:26;4.43;;;3.03;;
34152;SDS011;20426;48.372;10.888;2022-07-29T02:05:58;4.97;;;3.53;;
34152;SDS011;20426;48.372;10.888;2022-07-29T02:06:32;3.05;;;2.75;;
34152;SDS011;20426;48.372;10.888;2022-07-29T02:07:07;4.20;;;3.13;;
34152;SDS011;20426;48.372;10.888;2022-07-29T02:07:44;4.35;;;2.90;;
34152;SDS011;20426;48.372;10.888;2022-07-29T02:08:17;3.60;;;2.83;;
34152;SDS011;20426;48.372;10.888;2022-07-29T02:08:50;4.57;;;2.85;;
34152;SDS011;20426;48.372;10.888;2022-07-29T02:09:22;3.28;;;2.97;;
34152;SDS011;20426;48.372;10.888;2022-07-29T02:09:55;3.97;;;3.13;;
34152;SDS011;20426;48.372;10.888;2022-07-29T02:10:29;5.18;;;2.67;;
34152;SDS011;20426;48.372;10.888;2022-07-29T02:11:06;5.20;;;3.05;;
34152;SDS011;20426;48.372;10.888;2022-07-29T02:11:38;4.30;;;2.88;;
34152;SDS011;20426;48.372;10.888;2022-07-29T02:12:10;4.63;;;2.85;;
34152;SDS011;20426;48.372;10.888;2022-07-29T02:12:43;3.22;;;2.53;;
34152;SDS011;20426;48.372;10.888;2022-07-29T02:13:16;5.07;;;2.92;;
34152;SDS011;20426;48.372;10.888;2022-07-29T02:13:48;3.85;;;2.90;;
34152;SDS011;20426;48.372;10.888;2022-07-29T02:14:20;10.70;;;2.53;;
34152;SDS011;20426;48.372;10.888;2022-07-29T02:14:53;4.07;;;2.92;;
34152;SDS011;20426;48.372;10.888;2022-07-29T02:15:27;2.63;;;2.38;;
34152;SDS011;20426;48.372;10.888;2022-07-29T02:16:00;4.95;;;2.60;;
34152;SDS011;20426;48.372;10.888;2022-07-29T02:16:34;3.88;;;2.13;;
34152;SDS011;20426;48.372;10.888;2022-07-29T02:17:07;3.55;;;2.58;;
34152;SDS011;20426;48.372;10.888;2022-07-29T02:17:41;2.78;;;2.35;;
34152;SDS011;20426;48.372;10.888;2022-07-29T02:18:16;4.10;;;2.67;;
34152;SDS011;20426;48.372;10.888;2022-07-29T02:18:49;3.88;;;2.60;;
34152;SDS011;20426;48.372;10.888;2022-07-29T02:19:23;2.85;;;2.55;;
34152;SDS011;20426;48.372;10.888;2022-07-29T02:19:56;3.00;;;2.70;;
34152;SDS011;20426;48.372;10.888;2022-07-29T02:20:30;3.42;;;2.22;;
34152;SDS011;20426;48.372;10.888;2022-07-29T02:21:01;3.35;;;2.60;;
34152;SDS011;20426;48.372;10.888;2022-07-29T02:21:34;3.10;;;2.58;;
34152;SDS011;20426;48.372;10.888;2022-07-29T02:22:06;3.08;;;2.08;;
34152;SDS011;20426;48.372;10.888;2022-07-29T02:22:38;4.13;;;2.90;;
34152;SDS011;20426;48.372;10.888;2022-07-29T02:23:10;3.90;;;2.50;;
34152;SDS011;20426;48.372;10.888;2022-07-29T02:23:42;6.28;;;2.70;;
34152;SDS011;20426;48.372;10.888;2022-07-29T02:24:16;2.70;;;2.17;;
34152;SDS011;20426;48.372;10.888;2022-07-29T02:24:49;4.80;;;2.33;;
34152;SDS011;20426;48.372;10.888;2022-07-29T02:25:21;4.65;;;2.53;;
34152;SDS011;20426;48.372;10.888;2022-07-29T02:25:54;4.13;;;2.45;;
34152;SDS011;20426;48.372;10.888;2022-07-29T02:26:27;2.80;;;2.17;;
34152;SDS011;20426;48.372;10.888;2022-07-29T02:27:00;3.85;;;2.13;;
34152;SDS011;20426;48.372;10.888;2022-07-29T02:27:32;3.35;;;2.00;;
34152;SDS011;20426;48.372;10.888;2022-07-29T02:28:05;3.85;;;2.30;;
34152;SDS011;20426;48.372;10.888;2022-07-29T02:28:36;4.35;;;2.50;;
34152;SDS011;20426;48.372;10.888;2022-07-29T02:29:09;3.55;;;2.58;;
34152;SDS011;20426;48.372;10.888;2022-07-29T02:29:42;4.18;;;2.70;;
34152;SDS011;20426;48.372;10.888;2022-07-29T02:30:15;8.27;;;3.00;;
34152;SDS011;20426;48.372;10.888;2022-07-29T02:30:47;2.88;;;2.45;;
34152;SDS011;20426;48.372;10.888;2022-07-29T02:31:21;3.30;;;2.70;;
34152;SDS011;20426;48.372;10.888;2022-07-29T02:31:55;4.65;;;2.38;;
34152;SDS011;20426;48.372;10.888;2022-07-29T02:32:29;4.50;;;2.55;;
34152;SDS011;20426;48.372;10.888;2022-07-29T02:33:02;3.03;;;2.15;;
34152;SDS011;20426;48.372;10.888;2022-07-29T02:33:34;3.60;;;2.55;;
34152;SDS011;20426;48.372;10.888;2022-07-29T02:34:08;2.45;;;2.25;;
34152;SDS011;20426;48.372;10.888;2022-07-29T02:34:40;5.35;;;2.63;;
34152;SDS011;20426;48.372;10.888;2022-07-29T02:35:13;4.72;;;2.75;;
34152;SDS011;20426;48.372;10.888;2022-07-29T02:35:45;3.50;;;2.60;;
34152;SDS011;20426;48.372;10.888;2022-07-29T02:36:17;2.58;;;2.13;;
34152;SDS011;20426;48.372;10.888;2022-07-29T02:36:51;4.63;;;2.55;;
34152;SDS011;20426;48.372;10.888;2022-07-29T02:37:24;3.20;;;2.90;;
34152;SDS011;20426;48.372;10.888;2022-07-29T02:37:57;3.08;;;2.55;;
34152;SDS011;20426;48.372;10.888;2022-07-29T02:38:46;3.20;;;2.78;;
34152;SDS011;20426;48.372;10.888;2022-07-29T02:39:22;3.03;;;2.20;;
34152;SDS011;20426;48.372;10.888;2022-07-29T02:39:57;4.97;;;2.85;;
34152;SDS011;20426;48.372;10.888;2022-07-29T02:40:29;3.15;;;2.53;;
34152;SDS011;20426;48.372;10.888;2022-07-29T02:41:00;3.75;;;3.05;;
34152;SDS011;20426;48.372;10.888;2022-07-29T02:41:43;4.25;;;2.80;;
34152;SDS011;20426;48.372;10.888;2022-07-29T02:42:16;3.67;;;2.83;;
34152;SDS011;20426;48.372;10.888;2022-07-29T02:42:48;4.10;;;3.13;;
34152;SDS011;20426;48.372;10.888;2022-07-29T02:43:19;3.92;;;2.90;;
34152;SDS011;20426;48.372;10.888;2022-07-29T02:43:54;4.05;;;3.08;;
34152;SDS011;20426;48.372;10.888;2022-07-29T02:44:27;4.70;;;3.22;;
34152;SDS011;20426;48.372;10.888;2022-07-29T02:44:58;5.35;;;3.13;;
34152;SDS011;20426;48.372;10.888;2022-07-29T02:45:29;3.78;;;2.95;;
34152;SDS011;20426;48.372;10.888;2022-07-29T02:46:00;6.00;;;3.10;;
34152;SDS011;20426;48.372;10.888;2022-07-29T02:46:35;4.22;;;3.03;;
34152;SDS011;20426;48.372;10.888;2022-07-29T02:47:24;5.93;;;3.20;;
34152;SDS011;20426;48.372;10.888;2022-07-29T02:48:05;6.88;;;3.10;;
34152;SDS011;20426;48.372;10.888;2022-07-29T02:48:48;5.32;;;3.00;;
34152;SDS011;20426;48.372;10.888;2022-07-29T02:50:00;4.55;;;2.88;;
34152;SDS011;20426;48.372;10.888;2022-07-29T02:50:44;4.00;;;3.20;;
34152;SDS011;20426;48.372;10.888;2022-07-29T02:52:21;5.45;;;3.83;;
34152;SDS011;20426;48.372;10.888;2022-07-29T02:53:38;3.15;;;2.75;;
34152;SDS011;20426;48.372;10.888;2022-07-29T02:54:23;4.22;;;3.40;;
34152;SDS011;20426;48.372;10.888;2022-07-29T02:54:56;5.97;;;3.28;;
34152;SDS011;20426;48.372;10.888;2022-07-29T02:55:33;4.43;;;3.08;;
34152;SDS011;20426;48.372;10.888;2022-07-29T02:56:11;4.63;;;3.28;;
34152;SDS011;20426;48.372;10.888;2022-07-29T02:56:44;4.05;;;3.03;;
34152;SDS011;20426;48.372;10.888;2022-07-29T02:57:28;5.40;;;2.95;;
34152;SDS011;20426;48.372;10.888;2022-07-29T02:58:56;4.65;;;2.88;;
34152;SDS011;20426;48.372;10.888;2022-07-29T02:59:30;5.32;;;2.92;;
34152;SDS011;20426;48.372;10.888;2022-07-29T03:00:07;6.60;;;3.30;;
34152;SDS011;20426;48.372;10.888;2022-07-29T03:00:40;5.05;;;3.08;;
34152;SDS011;20426;48.372;10.888;2022-07-29T03:01:13;4.55;;;3.40;;
34152;SDS011;20426;48.372;10.888;2022-07-29T03:01:46;4.18;;;3.00;;
34152;SDS011;20426;48.372;10.888;2022-07-29T03:02:18;7.38;;;3.58;;
34152;SDS011;20426;48.372;10.888;2022-07-29T03:02:50;3.80;;;3.33;;
34152;SDS011;20426;48.372;10.888;2022-07-29T03:03:24;6.35;;;3.53;;
34152;SDS011;20426;48.372;10.888;2022-07-29T03:03:59;4.25;;;3.22;;
34152;SDS011;20426;48.372;10.888;2022-07-29T03:04:33;7.75;;;3.70;;
34152;SDS011;20426;48.372;10.888;2022-07-29T03:05:06;7.13;;;3.75;;
34152;SDS011;20426;48.372;10.888;2022-07-29T03:05:40;6.25;;;3.40;;
34152;SDS011;20426;48.372;10.888;2022-07-29T03:06:12;3.85;;;3.10;;
34152;SDS011;20426;48.372;10.888;2022-07-29T03:06:44;4.40;;;3.40;;
34152;SDS011;20426;48.372;10.888;2022-07-29T03:07:17;5.10;;;3.65;;
34152;SDS011;20426;48.372;10.888;2022-07-29T03:07:55;4.10;;;3.55;;
34152;SDS011;20426;48.372;10.888;2022-07-29T03:08:28;3.78;;;3.42;;
34152;SDS011;20426;48.372;10.888;2022-07-29T03:09:01;4.10;;;3.40;;
34152;SDS011;20426;48.372;10.888;2022-07-29T03:09:32;8.05;;;4.28;;
34152;SDS011;20426;48.372;10.888;2022-07-29T03:10:04;4.93;;;3.40;;
34152;SDS011;20426;48.372;10.888;2022-07-29T03:10:37;3.75;;;3.22;;
34152;SDS011;20426;48.372;10.888;2022-07-29T03:11:09;5.13;;;3.22;;
34152;SDS011;20426;48.372;10.888;2022-07-29T03:11:42;4.00;;;3.10;;
34152;SDS011;20426;48.372;10.888;2022-07-29T03:12:14;4.22;;;2.97;;
34152;SDS011;20426;48.372;10.888;2022-07-29T03:12:46;5.15;;;3.33;;
34152;SDS011;20426;48.372;10.888;2022-07-29T03:13:18;5.25;;;3.30;;
34152;SDS011;20426;48.372;10.888;2022-07-29T03:13:49;5.18;;;3.33;;
34152;SDS011;20426;48.372;10.888;2022-07-29T03:14:20;5.03;;;3.63;;
34152;SDS011;20426;48.372;10.888;2022-07-29T03:14:53;5.22;;;3.25;;
34152;SDS011;20426;48.372;10.888;2022-07-29T03:15:25;6.80;;;2.80;;
34152;SDS011;20426;48.372;10.888;2022-07-29T03:15:57;3.88;;;3.00;;
34152;SDS011;20426;48.372;10.888;2022-07-29T03:16:28;3.88;;;2.78;;
34152;SDS011;20426;48.372;10.888;2022-07-29T03:17:00;3.78;;;3.30;;
34152;SDS011;20426;48.372;10.888;2022-07-29T03:17:31;3.88;;;3.30;;
34152;SDS011;20426;48.372;10.888;2022-07-29T03:18:03;3.58;;;3.03;;
34152;SDS011;20426;48.372;10.888;2022-07-29T03:18:35;4.05;;;3.03;;
34152;SDS011;20426;48.372;10.888;2022-07-29T03:19:07;3.97;;;3.15;;
34152;SDS011;20426;48.372;10.888;2022-07-29T03:19:38;5.07;;;3.63;;
34152;SDS011;20426;48.372;10.888;2022-07-29T03:20:09;4.60;;;3.40;;
34152;SDS011;20426;48.372;10.888;2022-07-29T03:20:41;6.25;;;3.50;;
34152;SDS011;20426;48.372;10.888;2022-07-29T03:21:12;6.28;;;3.42;;
34152;SDS011;20426;48.372;10.888;2022-07-29T03:21:43;6.82;;;3.28;;
34152;SDS011;20426;48.372;10.888;2022-07-29T03:22:14;6.15;;;3.00;;
34152;SDS011;20426;48.372;10.888;2022-07-29T03:22:45;6.13;;;3.42;;
34152;SDS011;20426;48.372;10.888;2022-07-29T03:23:19;6.38;;;3.83;;
34152;SDS011;20426;48.372;10.888;2022-07-29T03:23:53;4.13;;;3.05;;
34152;SDS011;20426;48.372;10.888;2022-07-29T03:24:25;5.20;;;3.47;;
34152;SDS011;20426;48.372;10.888;2022-07-29T03:25:12;8.63;;;3.30;;
34152;SDS011;20426;48.372;10.888;2022-07-29T03:25:48;5.95;;;3.08;;
34152;SDS011;20426;48.372;10.888;2022-07-29T03:26:19;6.53;;;3.50;;
34152;SDS011;20426;48.372;10.888;2022-07-29T03:26:50;7.43;;;4.05;;
34152;SDS011;20426;48.372;10.888;2022-07-29T03:27:21;4.05;;;3.15;;
34152;SDS011;20426;48.372;10.888;2022-07-29T03:27:52;6.60;;;3.40;;
34152;SDS011;20426;48.372;10.888;2022-07-29T03:28:23;6.07;;;3.22;;
34152;SDS011;20426;48.372;10.888;2022-07-29T03:28:56;6.28;;;3.50;;
34152;SDS011;20426;48.372;10.888;2022-07-29T03:29:27;3.63;;;2.65;;
34152;SDS011;20426;48.372;10.888;2022-07-29T03:29:58;4.30;;;2.85;;
34152;SDS011;20426;48.372;10.888;2022-07-29T03:30:29;4.85;;;3.10;;
34152;SDS011;20426;48.372;10.888;2022-07-29T03:31:00;5.53;;;2.97;;
34152;SDS011;20426;48.372;10.888;2022-07-29T03:31:31;6.85;;;2.80;;
34152;SDS011;20426;48.372;10.888;2022-07-29T03:32:02;4.05;;;3.13;;
34152;SDS011;20426;48.372;10.888;2022-07-29T03:32:35;5.05;;;2.65;;
34152;SDS011;20426;48.372;10.888;2022-07-29T03:33:06;4.03;;;3.25;;